Time;durP1;ratioP1;P1;durP2;ratioP2;P2;SDS_P1;SDS_P2;PMS_P1;PMS_P2;Temp;Humidity;BMP_temperature;BMP_pressure;BME280_temperature;BME280_humidity;BME280_pressure;Samples;Min_cycle;Max_cycle;Signal;HPM_P1;HPM_P2
2023/06/10 00:01:23;;;;;;;6.13;2.83;;;17.20;99.90;;;;;;4998707;28;20042;-74
2023/06/10 00:03:51;;;;;;;8.82;2.47;;;17.20;99.90;;;;;;5006995;28;20096;-73
2023/06/10 00:06:17;;;;;;;7.10;2.90;;;17.20;99.90;;;;;;5006653;28;20073;-74
2023/06/10 00:08:43;;;;;;;5.72;2.45;;;17.20;99.90;;;;;;5007150;28;20037;-74
2023/06/10 00:11:08;;;;;;;5.82;2.58;;;17.10;99.90;;;;;;5005266;28;20439;-73
2023/06/10 00:13:34;;;;;;;11.40;2.67;;;17.10;99.90;;;;;;5006693;28;20037;-74
2023/06/10 00:15:59;;;;;;;6.13;2.83;;;17.10;99.90;;;;;;5007051;28;20241;-74
2023/06/10 00:18:26;;;;;;;4.68;2.63;;;17.10;99.90;;;;;;5005002;28;20073;-73
2023/06/10 00:20:54;;;;;;;5.75;2.90;;;17.10;99.90;;;;;;5005471;28;20046;-74
2023/06/10 00:23:21;;;;;;;6.90;2.92;;;17.00;99.90;;;;;;5006312;28;20620;-73
2023/06/10 00:25:46;;;;;;;11.00;3.78;;;17.00;99.90;;;;;;4988059;28;20050;-74
2023/06/10 00:28:13;;;;;;;3.92;2.28;;;17.00;99.90;;;;;;5006092;28;20156;-72
2023/06/10 00:30:39;;;;;;;5.32;2.60;;;16.90;99.90;;;;;;5006318;28;20061;-74
2023/06/10 00:33:04;;;;;;;6.18;2.95;;;17.00;99.90;;;;;;5006511;28;20042;-71
2023/06/10 00:35:30;;;;;;;4.32;2.20;;;16.90;99.90;;;;;;5004225;28;20046;-74
2023/06/10 00:37:55;;;;;;;9.32;2.80;;;16.90;99.90;;;;;;4989121;28;20126;-73
2023/06/10 00:40:21;;;;;;;4.72;2.88;;;16.90;99.90;;;;;;5004996;28;20045;-71
2023/06/10 00:42:47;;;;;;;6.63;2.35;;;16.80;99.90;;;;;;4988745;28;20046;-73
2023/06/10 00:45:12;;;;;;;6.07;3.42;;;16.80;99.90;;;;;;4985328;28;20407;-74
2023/06/10 00:47:39;;;;;;;4.18;2.17;;;16.80;99.90;;;;;;4992222;28;20491;-74
2023/06/10 00:50:06;;;;;;;7.35;3.00;;;16.80;99.90;;;;;;5004912;28;20049;-75
2023/06/10 00:52:32;;;;;;;4.25;2.67;;;16.70;99.90;;;;;;5005859;28;20534;-74
2023/06/10 00:54:59;;;;;;;6.47;3.30;;;16.80;99.90;;;;;;5005480;28;20436;-75
2023/06/10 00:57:26;;;;;;;5.00;2.60;;;16.70;99.90;;;;;;5005781;28;20068;-74
2023/06/10 00:59:52;;;;;;;6.00;2.80;;;16.70;99.90;;;;;;5004796;28;20081;-75
2023/06/10 01:02:17;;;;;;;4.60;2.15;;;16.70;99.90;;;;;;5004461;28;20069;-73
2023/06/10 01:04:43;;;;;;;4.88;2.40;;;16.60;99.90;;;;;;5004476;28;20045;-75
2023/06/10 01:07:33;;;;;;;5.68;2.97;;;16.60;99.90;;;;;;5004942;28;20042;-75
2023/06/10 01:10:31;;;;;;;3.88;2.20;;;16.60;99.90;;;;;;5005109;28;20045;-75
2023/06/10 01:13:02;;;;;;;9.43;2.85;;;16.60;99.90;;;;;;4983000;28;20061;-75
2023/06/10 01:15:32;;;;;;;5.07;2.78;;;16.50;99.90;;;;;;5004399;28;20054;-74
2023/06/10 01:18:01;;;;;;;7.68;2.58;;;16.50;99.90;;;;;;5004736;28;20046;-75
2023/06/10 01:20:28;;;;;;;4.70;2.40;;;16.50;99.90;;;;;;5005487;28;20087;-75
2023/06/10 01:22:58;;;;;;;4.30;2.35;;;16.50;99.90;;;;;;5004412;28;20037;-74
2023/06/10 01:25:28;;;;;;;7.00;2.95;;;16.50;99.90;;;;;;5003502;28;20052;-75
2023/06/10 01:28:24;;;;;;;4.65;2.42;;;16.50;99.90;;;;;;4988244;28;20056;-74
2023/06/10 01:31:11;;;;;;;5.00;2.55;;;16.40;99.90;;;;;;5004611;28;20034;-75
2023/06/10 01:33:41;;;;;;;7.38;3.65;;;16.40;99.90;;;;;;5005949;28;20386;-75
2023/06/10 01:36:08;;;;;;;5.43;2.85;;;16.40;99.90;;;;;;5004642;28;20078;-74
2023/06/10 01:38:40;;;;;;;4.45;3.15;;;16.40;99.90;;;;;;5003988;28;20052;-73
2023/06/10 01:41:06;;;;;;;;;;;16.30;99.90;;;;;;5005930;28;20052;-72
2023/06/10 01:43:38;;;;;;;4.68;2.53;;;16.30;99.90;;;;;;5005483;28;19949;-74
2023/06/10 01:46:04;;;;;;;3.35;2.88;;;16.30;99.90;;;;;;5008884;28;20045;-72
2023/06/10 01:48:29;;;;;;;4.70;3.15;;;16.30;99.90;;;;;;5009521;28;20041;-72
2023/06/10 01:50:56;;;;;;;4.75;2.53;;;16.20;99.90;;;;;;5008154;28;20099;-74
2023/06/10 01:53:22;;;;;;;6.53;3.03;;;16.20;99.90;;;;;;5009397;28;20054;-75
2023/06/10 01:55:48;;;;;;;6.53;3.22;;;16.20;99.90;;;;;;5008511;28;20130;-74
2023/06/10 01:58:13;;;;;;;4.30;2.45;;;16.10;99.90;;;;;;5007881;28;20129;-75
2023/06/10 02:00:39;;;;;;;9.38;2.97;;;16.10;99.90;;;;;;5009644;28;20129;-74
2023/06/10 02:03:05;;;;;;;9.40;2.53;;;16.10;99.90;;;;;;4989585;28;20061;-75
2023/06/10 02:05:31;;;;;;;4.95;2.28;;;16.00;99.90;;;;;;4988249;28;20587;-75
2023/06/10 02:07:57;;;;;;;5.28;2.65;;;16.00;99.90;;;;;;4989875;28;20043;-74
2023/06/10 02:10:23;;;;;;;6.20;2.53;;;16.00;99.90;;;;;;4987210;28;20509;-75
2023/06/10 02:12:49;;;;;;;6.10;3.28;;;16.00;99.90;;;;;;4988110;28;20126;-72
2023/06/10 02:15:14;;;;;;;6.68;2.70;;;16.00;99.90;;;;;;4989335;28;22013;-74
2023/06/10 02:17:40;;;;;;;6.03;3.22;;;15.90;99.90;;;;;;4989038;28;20053;-74
2023/06/10 02:20:07;;;;;;;6.68;2.40;;;15.90;99.90;;;;;;4989287;28;20062;-74
2023/06/10 02:22:33;;;;;;;5.03;2.67;;;15.90;99.90;;;;;;4988325;28;20133;-73
2023/06/10 02:24:59;;;;;;;4.72;2.95;;;15.90;99.90;;;;;;4987356;28;20121;-74
2023/06/10 02:27:25;;;;;;;5.80;2.45;;;15.90;99.90;;;;;;4989165;28;20058;-75
2023/06/10 02:29:50;;;;;;;7.15;2.83;;;15.90;99.90;;;;;;4989377;28;20043;-73
2023/06/10 02:32:16;;;;;;;5.90;3.22;;;15.80;99.90;;;;;;4989460;28;20128;-74
2023/06/10 02:34:45;;;;;;;4.28;2.28;;;15.80;99.90;;;;;;4988039;28;20406;-73
2023/06/10 02:37:11;;;;;;;6.28;3.20;;;15.80;99.90;;;;;;4989730;28;20418;-74
2023/06/10 02:39:37;;;;;;;5.90;3.17;;;15.80;99.90;;;;;;5008300;28;20038;-74
2023/06/10 02:42:02;;;;;;;3.63;2.42;;;15.80;99.90;;;;;;5008651;28;20125;-74
2023/06/10 02:44:28;;;;;;;3.90;2.55;;;15.80;99.90;;;;;;5007040;28;20046;-75
2023/06/10 02:46:53;;;;;;;4.57;2.72;;;15.70;99.90;;;;;;5007487;28;20128;-75
2023/06/10 02:49:19;;;;;;;3.30;2.35;;;15.70;99.90;;;;;;5008264;28;20060;-74
2023/06/10 02:51:45;;;;;;;5.60;2.60;;;15.70;99.90;;;;;;5008287;28;20038;-74
2023/06/10 02:54:10;;;;;;;5.80;2.90;;;15.60;99.90;;;;;;5007582;28;20052;-75
2023/06/10 02:56:36;;;;;;;5.45;3.33;;;15.60;99.90;;;;;;5006666;28;20128;-74
2023/06/10 02:59:02;;;;;;;5.15;2.33;;;15.60;99.90;;;;;;5007995;28;20042;-74
2023/06/10 03:01:27;;;;;;;3.90;2.92;;;15.50;99.90;;;;;;5006584;28;20048;-72
2023/06/10 03:03:56;;;;;;;6.15;2.28;;;15.50;99.90;;;;;;5006593;28;20050;-74
2023/06/10 03:06:24;;;;;;;3.35;2.38;;;15.50;99.90;;;;;;5006487;28;20108;-74
2023/06/10 03:08:49;;;;;;;5.80;2.65;;;15.50;99.90;;;;;;5006234;28;20134;-75
2023/06/10 03:11:15;;;;;;;6.45;2.97;;;15.40;99.90;;;;;;5007725;28;20128;-73
2023/06/10 03:13:41;;;;;;;7.55;2.83;;;15.40;99.90;;;;;;5007071;28;20050;-75
2023/06/10 03:16:07;;;;;;;4.60;2.85;;;15.40;99.90;;;;;;5006953;28;20046;-74
2023/06/10 03:18:33;;;;;;;5.63;2.50;;;15.30;99.90;;;;;;5007694;28;20437;-73
2023/06/10 03:20:59;;;;;;;6.80;2.50;;;15.30;99.90;;;;;;5006567;28;20045;-73
2023/06/10 03:23:24;;;;;;;3.58;2.58;;;15.30;99.90;;;;;;5006702;28;20520;-73
2023/06/10 03:25:50;;;;;;;10.15;3.45;;;15.30;99.90;;;;;;5005668;28;20046;-73
2023/06/10 03:28:15;;;;;;;4.35;2.83;;;15.30;99.90;;;;;;5006232;28;20430;-74
2023/06/10 03:30:41;;;;;;;4.95;2.47;;;15.30;99.90;;;;;;5007617;28;20042;-72
2023/06/10 03:33:06;;;;;;;3.58;2.58;;;15.20;99.90;;;;;;5007072;28;20042;-75
2023/06/10 03:35:32;;;;;;;4.90;2.58;;;15.20;99.90;;;;;;5005962;28;20080;-75
2023/06/10 03:37:58;;;;;;;6.13;3.10;;;15.20;99.90;;;;;;5007451;28;20614;-74
2023/06/10 03:40:24;;;;;;;6.65;2.95;;;15.20;99.90;;;;;;5005128;28;20041;-75
2023/06/10 03:42:50;;;;;;;9.65;3.45;;;15.20;99.90;;;;;;5005981;28;20037;-73
2023/06/10 03:45:16;;;;;;;6.80;2.72;;;15.10;99.90;;;;;;5005191;28;20137;-74
2023/06/10 03:47:43;;;;;;;7.68;3.42;;;15.20;99.90;;;;;;5006156;28;20042;-73
2023/06/10 03:50:09;;;;;;;4.50;2.88;;;15.20;99.90;;;;;;5006363;28;20054;-74
2023/06/10 03:52:36;;;;;;;7.32;2.75;;;15.10;99.90;;;;;;4991143;28;20054;-74
2023/06/10 03:55:02;;;;;;;5.10;1.90;;;15.10;99.90;;;;;;4986895;28;21108;-74
2023/06/10 03:57:28;;;;;;;6.03;2.53;;;15.10;99.90;;;;;;4987341;28;20411;-74
2023/06/10 03:59:54;;;;;;;7.18;3.50;;;15.10;99.90;;;;;;5003383;28;20045;-73
2023/06/10 04:02:19;;;;;;;4.90;2.95;;;15.10;99.90;;;;;;5002802;28;20183;-75
2023/06/10 04:04:45;;;;;;;5.03;2.30;;;15.10;99.90;;;;;;5006566;28;20050;-73
2023/06/10 04:07:11;;;;;;;5.85;3.08;;;15.10;99.90;;;;;;5006887;28;20042;-74
2023/06/10 04:09:36;;;;;;;4.40;2.67;;;15.10;99.90;;;;;;5006013;28;20050;-75
2023/06/10 04:12:02;;;;;;;6.05;2.78;;;15.10;99.90;;;;;;5005516;28;20045;-75
2023/06/10 04:14:28;;;;;;;6.88;2.92;;;15.10;99.90;;;;;;4988789;28;20439;-72
2023/06/10 04:16:54;;;;;;;4.80;2.60;;;15.10;99.90;;;;;;5005376;28;20457;-74
2023/06/10 04:19:20;;;;;;;4.95;2.00;;;15.10;99.90;;;;;;5005513;28;20037;-75
2023/06/10 04:21:46;;;;;;;8.20;2.50;;;15.10;99.90;;;;;;5006900;28;20050;-74
2023/06/10 04:24:12;;;;;;;4.53;2.70;;;15.10;99.90;;;;;;5005023;28;20030;-73
2023/06/10 04:26:38;;;;;;;4.70;2.10;;;15.10;99.90;;;;;;5007060;28;20077;-72
2023/06/10 04:29:03;;;;;;;4.07;2.60;;;15.10;99.90;;;;;;5005166;28;20065;-74
2023/06/10 04:31:30;;;;;;;7.88;2.67;;;15.10;99.90;;;;;;5004554;28;20088;-74
2023/06/10 04:33:55;;;;;;;5.53;2.88;;;15.10;99.90;;;;;;5006368;28;20431;-75
2023/06/10 04:36:21;;;;;;;5.60;2.67;;;15.10;99.90;;;;;;5006015;28;20104;-74
2023/06/10 04:38:46;;;;;;;4.80;2.25;;;15.20;99.90;;;;;;5003949;28;20479;-73
2023/06/10 04:41:12;;;;;;;5.65;3.00;;;15.10;99.90;;;;;;5006046;28;20515;-73
2023/06/10 04:43:38;;;;;;;6.47;2.63;;;15.10;99.90;;;;;;5005378;28;20092;-73
2023/06/10 04:46:04;;;;;;;3.83;2.03;;;15.10;99.90;;;;;;5021070;28;20503;-75
2023/06/10 04:48:30;;;;;;;4.13;2.42;;;15.20;99.90;;;;;;5004782;28;20135;-74
2023/06/10 04:50:56;;;;;;;3.58;2.35;;;15.20;99.90;;;;;;5005055;28;20402;-72
2023/06/10 04:53:22;;;;;;;7.40;3.38;;;15.10;99.90;;;;;;5003687;28;20046;-75
2023/06/10 04:55:48;;;;;;;2.97;2.28;;;15.20;99.90;;;;;;5004700;28;20046;-73
2023/06/10 04:58:14;;;;;;;3.67;2.60;;;15.20;99.90;;;;;;5005843;28;20453;-74
2023/06/10 05:00:40;;;;;;;2.53;2.10;;;15.20;99.90;;;;;;4988796;28;20057;-75
2023/06/10 05:03:05;;;;;;;3.67;2.60;;;15.20;99.90;;;;;;5004703;28;20147;-73
2023/06/10 05:05:31;;;;;;;6.03;2.65;;;15.20;99.90;;;;;;5004397;28;20081;-74
2023/06/10 05:07:57;;;;;;;3.95;2.13;;;15.30;99.90;;;;;;5004676;28;20078;-73
2023/06/10 05:10:22;;;;;;;6.50;2.58;;;15.30;99.90;;;;;;5003483;28;20438;-74
2023/06/10 05:12:48;;;;;;;6.35;2.92;;;15.30;99.90;;;;;;4988325;28;20042;-74
2023/06/10 05:15:13;;;;;;;6.95;2.75;;;15.30;99.90;;;;;;5005238;28;20100;-73
2023/06/10 05:17:39;;;;;;;3.20;2.38;;;15.40;99.90;;;;;;5006115;28;20545;-73
2023/06/10 05:20:06;;;;;;;6.25;2.63;;;15.40;99.90;;;;;;5005702;28;20129;-74
2023/06/10 05:22:32;;;;;;;8.02;2.97;;;15.40;99.90;;;;;;4987915;28;20544;-74
2023/06/10 05:24:57;;;;;;;7.93;3.65;;;15.40;99.90;;;;;;5003415;28;20069;-74
2023/06/10 05:27:24;;;;;;;3.53;2.78;;;15.40;99.90;;;;;;5004106;28;20124;-74
2023/06/10 05:29:51;;;;;;;3.22;2.38;;;15.50;99.90;;;;;;5004030;28;20570;-74
2023/06/10 05:32:17;;;;;;;6.57;2.80;;;15.50;99.90;;;;;;5005119;28;20045;-75
2023/06/10 05:34:43;;;;;;;4.05;2.50;;;15.50;99.90;;;;;;5020663;28;20038;-74
2023/06/10 05:37:08;;;;;;;3.08;2.47;;;15.50;99.90;;;;;;5006042;28;20542;-74
2023/06/10 05:39:37;;;;;;;4.88;2.53;;;15.60;99.90;;;;;;4984733;28;20092;-75
2023/06/10 05:42:04;;;;;;;6.85;2.75;;;15.60;99.90;;;;;;5005349;28;20052;-74
2023/06/10 05:44:29;;;;;;;8.13;3.42;;;15.60;99.90;;;;;;4987366;28;20042;-75
2023/06/10 05:46:55;;;;;;;4.60;2.53;;;15.70;99.90;;;;;;5003770;28;20042;-74
2023/06/10 05:49:21;;;;;;;4.22;2.40;;;15.70;99.90;;;;;;5005342;28;20038;-74
2023/06/10 05:51:46;;;;;;;5.40;2.65;;;15.70;99.90;;;;;;5004424;28;20056;-74
2023/06/10 05:54:12;;;;;;;5.53;3.40;;;15.80;99.90;;;;;;5004019;28;20049;-75
2023/06/10 05:56:37;;;;;;;6.03;2.72;;;15.80;99.90;;;;;;5004387;28;20050;-74
2023/06/10 05:59:05;;;;;;;8.60;3.40;;;15.80;99.90;;;;;;5005279;28;20560;-74
2023/06/10 06:01:30;;;;;;;5.10;3.22;;;15.90;99.90;;;;;;5003669;28;20564;-74
2023/06/10 06:03:56;;;;;;;8.25;2.95;;;15.90;99.90;;;;;;4987429;28;20050;-74
2023/06/10 06:06:21;;;;;;;5.50;3.28;;;15.90;99.90;;;;;;5020033;28;20450;-74
2023/06/10 06:08:47;;;;;;;7.18;2.70;;;15.90;99.90;;;;;;5004317;28;20473;-72
2023/06/10 06:11:13;;;;;;;5.93;3.08;;;16.00;99.90;;;;;;5003497;28;20042;-72
2023/06/10 06:13:39;;;;;;;6.10;3.58;;;16.00;99.90;;;;;;5005566;28;20096;-73
2023/06/10 06:16:04;;;;;;;6.57;3.00;;;16.00;99.90;;;;;;5004791;28;20042;-74
2023/06/10 06:18:30;;;;;;;7.50;3.30;;;16.10;99.90;;;;;;5004590;28;20042;-74
2023/06/10 06:20:56;;;;;;;8.65;3.20;;;16.10;99.90;;;;;;5004867;28;20046;-72
2023/06/10 06:23:21;;;;;;;8.25;3.10;;;16.20;99.90;;;;;;5002340;28;20041;-74
2023/06/10 06:25:47;;;;;;;4.68;2.63;;;16.20;99.90;;;;;;5002385;28;20368;-75
2023/06/10 06:28:12;;;;;;;6.85;2.95;;;16.30;99.90;;;;;;5002713;28;20096;-75
2023/06/10 06:30:38;;;;;;;4.55;2.97;;;16.30;99.90;;;;;;5007583;28;20117;-74
2023/06/10 06:33:03;;;;;;;5.35;3.15;;;16.30;99.90;;;;;;5007501;28;20100;-74
2023/06/10 06:35:33;;;;;;;5.95;2.75;;;16.40;99.90;;;;;;5007483;28;20441;-74
2023/06/10 06:37:59;;;;;;;4.30;3.08;;;16.40;99.90;;;;;;5006102;28;20041;-73
2023/06/10 06:40:25;;;;;;;8.32;3.10;;;16.50;99.90;;;;;;5008134;28;20080;-73
2023/06/10 06:42:51;;;;;;;5.30;2.65;;;16.50;99.90;;;;;;5006926;28;20054;-73
2023/06/10 06:45:16;;;;;;;8.32;2.80;;;16.60;99.90;;;;;;5006945;28;20048;-73
2023/06/10 06:47:43;;;;;;;4.78;2.92;;;16.60;99.90;;;;;;4991099;28;20133;-73
2023/06/10 06:50:09;;;;;;;4.45;3.05;;;16.70;99.90;;;;;;5007425;28;20454;-73
2023/06/10 06:52:35;;;;;;;5.07;2.50;;;16.70;99.90;;;;;;5008058;28;20045;-72
2023/06/10 06:55:00;;;;;;;6.55;3.17;;;16.80;99.90;;;;;;5007481;28;20050;-72
2023/06/10 06:57:26;;;;;;;3.75;2.95;;;16.80;99.90;;;;;;5006356;28;20049;-72
2023/06/10 06:59:52;;;;;;;6.70;3.38;;;16.80;99.90;;;;;;5007414;28;21120;-73
2023/06/10 07:02:18;;;;;;;5.43;3.08;;;16.90;99.90;;;;;;5006294;28;20073;-72
2023/06/10 07:04:45;;;;;;;6.15;3.22;;;16.90;99.90;;;;;;5006478;28;20096;-71
2023/06/10 07:07:11;;;;;;;5.13;2.50;;;17.00;99.90;;;;;;5006408;28;20080;-71
2023/06/10 07:09:38;;;;;;;5.68;3.22;;;17.00;99.90;;;;;;5006244;28;20121;-71
2023/06/10 07:12:04;;;;;;;8.43;2.95;;;17.10;99.90;;;;;;5007337;28;20115;-72
2023/06/10 07:14:29;;;;;;;6.97;3.30;;;17.10;99.90;;;;;;4997303;28;20038;-71
2023/06/10 07:16:55;;;;;;;4.97;3.20;;;17.20;99.90;;;;;;5005442;28;20072;-72
2023/06/10 07:19:21;;;;;;;5.93;3.55;;;17.20;99.90;;;;;;5006056;28;20118;-73
2023/06/10 07:21:47;;;;;;;8.05;3.03;;;17.20;99.90;;;;;;5006306;28;20049;-72
2023/06/10 07:24:13;;;;;;;5.05;2.80;;;17.30;99.90;;;;;;4991942;28;20043;-72
2023/06/10 07:26:38;;;;;;;5.55;2.58;;;17.30;99.90;;;;;;4993713;28;20049;-71
2023/06/10 07:29:04;;;;;;;3.63;2.60;;;17.40;99.90;;;;;;5006062;28;20049;-71
2023/06/10 07:31:30;;;;;;;6.22;3.58;;;17.40;99.90;;;;;;5004914;28;20638;-71
2023/06/10 07:33:55;;;;;;;6.28;3.13;;;17.50;99.90;;;;;;5006871;28;20038;-71
2023/06/10 07:36:21;;;;;;;2.78;2.28;;;17.50;99.90;;;;;;5012291;28;20127;-72
2023/06/10 07:38:48;;;;;;;5.35;2.83;;;17.50;99.90;;;;;;5008754;28;20124;-71
2023/06/10 07:41:14;;;;;;;4.90;2.80;;;17.60;99.90;;;;;;5005385;28;20064;-71
2023/06/10 07:43:39;;;;;;;6.15;2.30;;;17.60;99.90;;;;;;5007298;28;20050;-71
2023/06/10 07:46:05;;;;;;;7.53;2.75;;;17.70;99.90;;;;;;5006112;28;20034;-71
2023/06/10 07:48:31;;;;;;;4.28;2.63;;;17.70;99.90;;;;;;5004820;28;20042;-72
2023/06/10 07:50:57;;;;;;;3.67;2.60;;;17.70;99.90;;;;;;5005396;28;20049;-71
2023/06/10 07:53:22;;;;;;;8.50;2.83;;;17.80;99.90;;;;;;5008124;28;20044;-72
2023/06/10 07:55:48;;;;;;;6.18;2.80;;;17.80;99.90;;;;;;5021876;28;20394;-72
2023/06/10 07:58:14;;;;;;;4.28;2.60;;;17.90;99.90;;;;;;5004421;28;20064;-71
2023/06/10 08:00:39;;;;;;;3.22;2.83;;;17.90;99.90;;;;;;5006157;28;20050;-73
2023/06/10 08:03:05;;;;;;;5.00;2.70;;;18.00;99.90;;;;;;5005243;28;20042;-73
2023/06/10 08:05:31;;;;;;;5.57;1.95;;;18.10;99.90;;;;;;5006105;28;20056;-75
2023/06/10 08:07:57;;;;;;;5.55;3.13;;;18.10;99.90;;;;;;5005823;28;20417;-73
2023/06/10 08:10:22;;;;;;;3.95;2.45;;;18.10;99.90;;;;;;5005125;28;20077;-71
2023/06/10 08:12:48;;;;;;;3.67;2.30;;;18.20;99.90;;;;;;5006694;28;20052;-72
2023/06/10 08:15:13;;;;;;;2.70;2.20;;;18.30;99.90;;;;;;5006121;28;20529;-73
2023/06/10 08:17:39;;;;;;;4.82;2.67;;;18.30;99.90;;;;;;5006799;28;20050;-72
2023/06/10 08:20:06;;;;;;;4.85;2.03;;;18.30;99.90;;;;;;5006172;28;20045;-72
2023/06/10 08:22:31;;;;;;;8.90;2.90;;;18.30;99.90;;;;;;5004705;28;20095;-73
2023/06/10 08:24:57;;;;;;;6.20;2.75;;;18.40;99.90;;;;;;5006026;28;20414;-71
2023/06/10 08:27:23;;;;;;;4.85;2.38;;;18.40;99.90;;;;;;5004073;28;20050;-72
2023/06/10 08:29:48;;;;;;;4.50;2.60;;;18.50;99.90;;;;;;5005202;28;20050;-72
2023/06/10 08:32:14;;;;;;;6.68;2.65;;;18.50;99.90;;;;;;5001599;28;20125;-71
2023/06/10 08:34:40;;;;;;;4.20;2.28;;;18.60;99.90;;;;;;5004346;28;20069;-71
2023/06/10 08:37:07;;;;;;;4.95;2.45;;;18.60;99.90;;;;;;5020760;28;20057;-71
2023/06/10 08:39:33;;;;;;;4.25;2.45;;;18.70;99.90;;;;;;5004421;28;20527;-69
2023/06/10 08:41:58;;;;;;;3.45;2.05;;;18.70;99.90;;;;;;5005546;28;20048;-69
2023/06/10 08:44:29;;;;;;;3.95;2.90;;;18.70;99.90;;;;;;5005268;28;20103;-72
2023/06/10 08:46:59;;;;;;;7.60;2.58;;;18.80;99.90;;;;;;5005584;28;20037;-74
2023/06/10 08:49:45;;;;;;;3.63;2.30;;;18.80;99.90;;;;;;5102517;27;20120;-72
2023/06/10 08:52:19;;;;;;;4.32;2.70;;;18.90;99.90;;;;;;5084894;28;20051;-71
2023/06/10 08:54:54;;;;;;;4.10;2.00;;;18.90;99.90;;;;;;5101946;28;20494;-74
2023/06/10 08:57:21;;;;;;;4.25;2.63;;;18.90;99.90;;;;;;5102989;28;20063;-73
2023/06/10 08:59:47;;;;;;;4.05;2.20;;;19.00;99.90;;;;;;5067933;28;20093;-72
2023/06/10 09:02:14;;;;;;;3.42;2.33;;;19.00;99.90;;;;;;5106034;28;20040;-73
2023/06/10 09:04:43;;;;;;;4.45;2.53;;;19.00;99.90;;;;;;5101664;28;20036;-72
2023/06/10 09:07:09;;;;;;;4.85;2.35;;;19.10;99.90;;;;;;5084910;28;20039;-71
2023/06/10 09:09:35;;;;;;;3.10;2.22;;;19.10;99.90;;;;;;5080983;28;20047;-73
2023/06/10 09:12:00;;;;;;;4.07;2.35;;;19.20;99.90;;;;;;5077698;28;20097;-73
2023/06/10 09:14:26;;;;;;;3.47;2.13;;;19.20;99.90;;;;;;5084125;28;20409;-70
2023/06/10 09:16:56;;;;;;;5.43;2.17;;;19.20;99.90;;;;;;5101038;28;20035;-69
2023/06/10 09:19:23;;;;;;;2.45;1.90;;;19.30;99.90;;;;;;5096106;28;20052;-71
2023/06/10 09:21:48;;;;;;;4.32;2.10;;;19.40;99.90;;;;;;5101658;28;20083;-70
2023/06/10 09:24:14;;;;;;;5.30;2.67;;;19.40;99.90;;;;;;5082414;28;20063;-72
2023/06/10 09:26:40;;;;;;;4.55;2.67;;;19.50;99.90;;;;;;5104664;28;20067;-73
2023/06/10 09:29:08;;;;;;;4.38;2.08;;;19.50;99.90;;;;;;5072981;28;20074;-70
2023/06/10 09:31:35;;;;;;;2.65;2.17;;;19.60;99.90;;;;;;5090174;28;20043;-74
2023/06/10 09:34:10;;;;;;;3.13;1.80;;;19.60;99.90;;;;;;5070000;28;20056;-70
2023/06/10 09:36:36;;;;;;;5.88;2.15;;;19.70;99.90;;;;;;5077833;28;20416;-70
2023/06/10 09:39:02;;;;;;;5.22;2.67;;;19.70;99.90;;;;;;5102929;28;20437;-70
2023/06/10 09:41:35;;;;;;;4.50;2.40;;;19.70;99.90;;;;;;5079786;28;20086;-69
2023/06/10 09:44:02;;;;;;;4.13;1.98;;;19.80;99.90;;;;;;5097499;28;20048;-71
2023/06/10 09:46:32;;;;;;;5.07;2.35;;;19.80;99.90;;;;;;5079581;28;20551;-70
2023/06/10 09:48:58;;;;;;;3.72;2.90;;;19.90;99.90;;;;;;5070836;28;20079;-72
2023/06/10 09:51:24;;;;;;;2.25;1.85;;;19.90;99.90;;;;;;5090860;28;20635;-70
2023/06/10 09:53:52;;;;;;;4.28;1.90;;;20.00;99.90;;;;;;5067494;28;20375;-70
2023/06/10 09:56:18;;;;;;;2.20;1.70;;;20.00;99.90;;;;;;5117738;28;20036;-69
2023/06/10 09:58:45;;;;;;;4.38;2.22;;;20.00;99.90;;;;;;5088159;28;20040;-70
2023/06/10 10:01:14;;;;;;;5.32;2.63;;;20.10;99.90;;;;;;5050571;28;20036;-70
2023/06/10 10:03:45;;;;;;;3.60;2.80;;;20.10;99.90;;;;;;5087228;28;20486;-69
2023/06/10 10:06:12;;;;;;;3.77;2.37;;;20.20;99.90;;;;;;5086826;28;20032;-69
2023/06/10 10:08:38;;;;;;;3.60;2.30;;;20.20;99.90;;;;;;5086181;28;20084;-69
2023/06/10 10:11:06;;;;;;;4.13;2.40;;;20.20;99.90;;;;;;5087221;28;20071;-69
2023/06/10 10:13:34;;;;;;;2.70;1.80;;;20.30;99.90;;;;;;5086806;28;20107;-69
2023/06/10 10:16:06;;;;;;;3.75;2.25;;;20.30;99.90;;;;;;5068193;28;20117;-69
2023/06/10 10:18:32;;;;;;;4.63;2.10;;;20.30;99.90;;;;;;5068321;28;20380;-69
2023/06/10 10:21:04;;;;;;;2.40;2.03;;;20.40;99.90;;;;;;5068706;28;20261;-70
2023/06/10 10:23:52;;;;;;;4.07;3.05;;;20.40;99.90;;;;;;5085354;28;20085;-69
2023/06/10 10:26:19;;;;;;;3.35;1.65;;;20.50;99.90;;;;;;5067000;28;20044;-70
2023/06/10 10:28:51;;;;;;;4.57;1.98;;;20.50;99.90;;;;;;5067788;28;20043;-70
2023/06/10 10:31:19;;;;;;;2.58;2.13;;;20.60;99.90;;;;;;5067312;28;20067;-69
2023/06/10 10:34:02;;;;;;;3.38;2.45;;;20.60;99.90;;;;;;5067202;28;20048;-70
2023/06/10 10:36:28;;;;;;;4.57;1.70;;;20.70;99.90;;;;;;5086319;28;20086;-69
2023/06/10 10:38:54;;;;;;;2.83;1.83;;;20.80;99.90;;;;;;5067180;28;20032;-69
2023/06/10 10:41:20;;;;;;;2.15;1.42;;;20.80;99.90;;;;;;5087094;28;20036;-69
2023/06/10 10:43:47;;;;;;;4.30;1.98;;;20.90;99.90;;;;;;5052125;28;20028;-69
2023/06/10 10:46:17;;;;;;;6.30;1.90;;;20.90;99.90;;;;;;5069371;28;20529;-70
2023/06/10 10:48:44;;;;;;;3.25;2.17;;;20.90;99.90;;;;;;5086183;28;20044;-70
2023/06/10 10:51:10;;;;;;;3.22;1.83;;;20.90;99.90;;;;;;5087247;28;20039;-69
2023/06/10 10:53:39;;;;;;;2.15;1.92;;;20.90;99.90;;;;;;5085632;28;20044;-69
2023/06/10 10:56:06;;;;;;;2.28;1.75;;;21.00;99.90;;;;;;5082152;28;20028;-69
2023/06/10 10:58:32;;;;;;;2.15;1.50;;;21.00;99.90;;;;;;5086502;28;20751;-69
2023/06/10 11:00:57;;;;;;;4.20;1.98;;;21.00;99.90;;;;;;5085979;28;20032;-69
2023/06/10 11:03:29;;;;;;;2.03;1.30;;;21.00;99.90;;;;;;5066103;28;20114;-70
2023/06/10 11:05:57;;;;;;;3.88;1.85;;;21.10;99.90;;;;;;5085398;28;20051;-68
2023/06/10 11:08:32;;;;;;;2.30;1.65;;;21.20;99.90;;;;;;5079936;28;20086;-68
2023/06/10 11:10:57;;;;;;;3.67;1.90;;;21.20;99.90;;;;;;5083129;28;20040;-68
2023/06/10 11:13:24;;;;;;;3.35;1.80;;;21.20;99.90;;;;;;5084727;28;20105;-68
2023/06/10 11:15:51;;;;;;;2.72;1.92;;;21.20;99.90;;;;;;5066993;28;20100;-68
2023/06/10 11:18:27;;;;;;;3.75;1.70;;;21.30;99.90;;;;;;5085532;28;20067;-68
2023/06/10 11:21:04;;;;;;;2.55;1.70;;;21.30;99.90;;;;;;5085564;28;20379;-68
2023/06/10 11:23:34;;;;;;;3.08;1.90;;;21.40;99.90;;;;;;5084016;28;20080;-68
2023/06/10 11:26:10;;;;;;;4.07;2.25;;;21.40;99.90;;;;;;5067328;28;20044;-68
2023/06/10 11:28:36;;;;;;;3.58;1.83;;;21.40;99.90;;;;;;5066672;28;20122;-68
2023/06/10 11:31:02;;;;;;;1.98;1.63;;;21.50;99.90;;;;;;5067390;28;20127;-68
2023/06/10 11:33:27;;;;;;;2.22;1.60;;;21.50;99.90;;;;;;5067200;28;20044;-68
2023/06/10 11:35:53;;;;;;;2.58;2.03;;;21.50;99.90;;;;;;5066564;28;20134;-68
2023/06/10 11:38:19;;;;;;;2.53;2.00;;;21.60;99.90;;;;;;5066031;28;20048;-68
2023/06/10 11:40:49;;;;;;;2.17;1.63;;;21.70;99.90;;;;;;5083451;28;20117;-68
2023/06/10 11:43:17;;;;;;;2.83;1.77;;;21.70;99.90;;;;;;5084694;28;20032;-68
2023/06/10 11:45:43;;;;;;;4.93;1.65;;;21.70;99.90;;;;;;5066877;28;20035;-69
2023/06/10 11:48:09;;;;;;;2.17;1.50;;;21.80;99.90;;;;;;5085100;28;20482;-69
2023/06/10 11:50:36;;;;;;;3.08;2.30;;;21.80;99.90;;;;;;5085440;28;20090;-68
2023/06/10 11:53:02;;;;;;;1.98;1.48;;;21.80;99.90;;;;;;5083647;28;20039;-68
2023/06/10 11:55:43;;;;;;;3.25;1.75;;;21.90;99.90;;;;;;5066397;28;20040;-68
2023/06/10 11:58:21;;;;;;;5.78;1.65;;;21.90;99.90;;;;;;5066898;28;20127;-68
2023/06/10 12:00:49;;;;;;;2.92;2.22;;;21.90;99.90;;;;;;5066631;28;20044;-68
2023/06/10 12:03:15;;;;;;;2.03;1.73;;;22.00;99.90;;;;;;5066282;28;20123;-69
2023/06/10 12:05:53;;;;;;;2.58;1.55;;;22.00;99.90;;;;;;5066830;28;20115;-68
2023/06/10 12:08:18;;;;;;;2.80;1.52;;;22.10;99.90;;;;;;5083615;28;20059;-69
2023/06/10 12:10:44;;;;;;;4.68;1.80;;;22.10;99.90;;;;;;5084116;28;20036;-69
2023/06/10 12:13:10;;;;;;;2.47;2.10;;;22.10;99.90;;;;;;5084820;28;20086;-69
2023/06/10 12:15:36;;;;;;;4.97;2.03;;;22.20;99.90;;;;;;5084955;28;20097;-70
2023/06/10 12:18:02;;;;;;;4.10;2.17;;;22.20;99.90;;;;;;5085190;28;20048;-70
2023/06/10 12:20:31;;;;;;;3.40;1.88;;;22.30;99.90;;;;;;5084366;28;20083;-70
2023/06/10 12:22:57;;;;;;;5.55;2.60;;;22.30;99.90;;;;;;5065993;28;20047;-69
2023/06/10 12:25:27;;;;;;;3.42;2.25;;;22.20;99.90;;;;;;5073471;28;20362;-69
2023/06/10 12:27:54;;;;;;;7.47;3.00;;;22.30;99.90;;;;;;5055792;28;20082;-69
2023/06/10 12:30:24;;;;;;;4.32;2.75;;;22.30;99.90;;;;;;5054830;28;20040;-70
2023/06/10 12:32:52;;;;;;;4.78;3.05;;;22.30;99.90;;;;;;5064573;28;20525;-69
2023/06/10 12:35:24;;;;;;;4.85;3.30;;;22.30;99.90;;;;;;5065964;28;20123;-69
2023/06/10 12:38:00;;;;;;;7.40;3.15;;;22.30;99.90;;;;;;5065601;28;20632;-69
2023/06/10 12:40:31;;;;;;;7.45;3.63;;;22.30;99.90;;;;;;5066211;28;20036;-70
2023/06/10 12:42:58;;;;;;;5.95;3.65;;;22.30;99.90;;;;;;5084745;28;20032;-69
2023/06/10 12:45:39;;;;;;;4.93;2.90;;;22.20;99.90;;;;;;5083897;28;20042;-69
2023/06/10 12:48:10;;;;;;;3.90;3.03;;;22.20;99.90;;;;;;5084589;28;20060;-69